Terminal Aerodrome Forecast
Issued by NWS

Home | Current Version | Previous Version | Text Only | Print | Product List | Glossary Off
Versions: 1 2 3 4 5 6 7 8 9 10 11 12 13 14 15 16 17 18

349
FTUS43 KFGF 271726
TAFBJI
TAF
KBJI 271726Z 2718/2818 13007KT P6SM BKN060
     FM272000 10007KT P6SM VCSH OVC050
     FM280200 VRB04KT P6SM VCSH OVC035
     FM280800 VRB04KT P6SM SCT008 BKN020=

USA.gov is the U.S. government's official web portal to all federal, state and local government web resources and services.